Startpagina
METAR-TAF:

METAR-TAF

Vliegvelden :

Tete, Mozambique

breedte: 16-06S, lengte: 033-38E, hoogte: 160 m

Actueel weer

Dit bericht is 1 uur en het 33 minuten geleden gemaakt, om 23:00 UTC
Weinig wind
Temperatuur 17°C
Vochtigheid 88%
Druk 1024 hPa
Zicht 10 km of meer
Gebroken wolken op 2000 ft

METAR: FQTT 152300Z 00000KT 9999 BKN020 17/15 Q1024

Tijdstip: 02:33 (00:33 UTC)

Verwachting

Dit bericht is 2 uur en het 33 minuten geleden gemaakt, om 22:00 UTC
Verwachting geldig van 16 om 00 UTC tot 17 om 00 UTC
Wind 8 kt uit het zuiden
Zicht 10 km of meer
Gebroken wolken op 2000 ft
Wijzigt naar
van 16 om 10 UTC tot 16 om 12 UTC
Wind 12 kt uit het zuidzuidoosten
Verspreide wolken op 2000 ft
Wijzigt naar
van 16 om 18 UTC tot 16 om 20 UTC
Wind 8 kt uit het oosten

TAF: FQTT 152200Z 1600/1700 19008KT 9999 BKN020 TX27/1613Z TN16/1603Z BECMG 1610/1612 16012KT SCT020 BECMG 1618/1620 09008KT

Waarnemingen en weersverwachtingen van meer dan 4000 vliegvelden (METAR en TAF).

De beschikbare stations zijn de gele en rode punten op de kaart.

Ga met uw muis naar het station om de naam te zien.

Klik dan om waarnemingen en weersverwachtingen te zien.

kaart wijzigen: klik op de groene knoppen met een zwart kruis om in te zoomen, op de groene knop met een streepje om uit te zoomen of op de groene pijlen voor aangrenzende kaarten.


METAR-TAF: